createdAt,value
2023-02-18T00:01:20.943Z,10.40
2023-02-18T00:03:49.409Z,10.40
2023-02-18T00:06:21.498Z,10.40
2023-02-18T00:08:50.393Z,10.40
2023-02-18T00:11:21.326Z,10.40
2023-02-18T00:13:52.250Z,10.40
2023-02-18T00:16:20.352Z,10.40
2023-02-18T00:18:48.466Z,10.40
2023-02-18T00:23:46.041Z,10.40
2023-02-18T00:26:15.435Z,10.40
2023-02-18T00:28:44.968Z,10.40
2023-02-18T00:31:15.755Z,10.40
2023-02-18T00:33:44.095Z,10.40
2023-02-18T00:36:14.965Z,10.50
2023-02-18T00:38:46.116Z,10.40
2023-02-18T00:41:14.611Z,10.50
2023-02-18T00:46:12.981Z,10.40
2023-02-18T00:48:41.266Z,10.40
2023-02-18T00:51:09.678Z,10.40
2023-02-18T00:53:38.632Z,10.50
2023-02-18T00:56:07.846Z,10.50
2023-02-18T00:58:36.653Z,10.50
2023-02-18T01:01:07.423Z,10.40
2023-02-18T01:03:37.110Z,10.50
2023-02-18T01:06:06.380Z,10.40
2023-02-18T01:13:31.842Z,10.40
2023-02-18T01:18:28.825Z,10.40
2023-02-18T01:20:58.436Z,10.40
2023-02-18T01:25:56.223Z,10.40
2023-02-18T01:28:25.266Z,10.40
2023-02-18T01:30:54.043Z,10.50
2023-02-18T01:33:22.802Z,10.50
2023-02-18T01:38:20.542Z,10.50
2023-02-18T01:40:51.405Z,10.50
2023-02-18T01:43:20.494Z,10.50
2023-02-18T01:46:05.935Z,10.50
2023-02-18T01:48:39.573Z,10.50
2023-02-18T01:51:13.214Z,10.50
2023-02-18T01:53:50.233Z,10.50
2023-02-18T01:56:23.974Z,10.50
2023-02-18T01:58:53.296Z,10.50
2023-02-18T02:06:19.765Z,10.60
2023-02-18T02:08:52.256Z,10.60
2023-02-18T02:11:46.668Z,10.50
2023-02-18T02:14:27.981Z,10.60
2023-02-18T02:17:03.895Z,12.40
2023-02-18T02:20:07.281Z,10.60
2023-02-18T02:23:23.438Z,10.50
2023-02-18T02:26:30.959Z,10.60
2023-02-18T02:29:18.566Z,10.50
2023-02-18T02:32:10.560Z,10.50
2023-02-18T02:34:56.311Z,10.50
2023-02-18T02:37:31.429Z,10.50
2023-02-18T02:40:16.579Z,10.50
2023-02-18T02:42:55.501Z,10.50
2023-02-18T02:45:35.019Z,10.50
2023-02-18T02:48:11.833Z,10.50
2023-02-18T02:50:47.242Z,10.60
2023-02-18T02:53:18.026Z,10.50
2023-02-18T02:58:17.053Z,10.50
2023-02-18T03:00:58.450Z,10.60
2023-02-18T03:04:03.636Z,10.60
2023-02-18T03:06:50.965Z,10.50
2023-02-18T03:09:30.124Z,10.50
2023-02-18T03:12:06.434Z,10.50
2023-02-18T03:14:43.146Z,10.60
2023-02-18T03:17:19.330Z,10.60
2023-02-18T03:19:56.237Z,10.60
2023-02-18T03:22:31.723Z,10.60
2023-02-18T03:27:32.039Z,10.60
2023-02-18T03:30:07.769Z,10.60
2023-02-18T03:32:36.663Z,10.60
2023-02-18T03:35:09.024Z,10.60
2023-02-18T03:37:43.261Z,9.30
2023-02-18T03:40:12.584Z,10.60
2023-02-18T03:42:40.604Z,10.70
2023-02-18T03:45:09.106Z,10.60
2023-02-18T03:47:37.492Z,10.60
2023-02-18T03:50:06.188Z,10.70
2023-02-18T03:52:36.685Z,10.60
2023-02-18T03:55:07.131Z,10.70
2023-02-18T04:00:05.622Z,10.70
2023-02-18T04:02:34.208Z,10.70
2023-02-18T04:07:30.586Z,10.70
2023-02-18T04:12:28.871Z,10.70
2023-02-18T04:17:25.580Z,10.70
2023-02-18T04:19:53.939Z,10.70
2023-02-18T04:22:21.973Z,10.70
2023-02-18T04:24:49.987Z,10.70
2023-02-18T04:27:18.027Z,10.70
2023-02-18T04:29:47.506Z,10.70
2023-02-18T04:32:15.454Z,10.70
2023-02-18T04:34:43.509Z,10.60
2023-02-18T04:37:11.618Z,10.60
2023-02-18T04:39:39.611Z,10.60
2023-02-18T04:42:09.119Z,10.70
2023-02-18T04:44:37.498Z,10.70
2023-02-18T04:47:08.087Z,10.60
2023-02-18T04:49:36.240Z,10.60
2023-02-18T04:52:04.817Z,10.60
2023-02-18T04:59:29.705Z,10.50
2023-02-18T05:01:57.830Z,10.60
2023-02-18T05:04:27.285Z,10.60
2023-02-18T05:09:24.330Z,10.60
2023-02-18T05:11:52.833Z,10.60
2023-02-18T05:14:20.923Z,10.70
2023-02-18T05:16:48.952Z,10.60
2023-02-18T05:19:17.872Z,10.60
2023-02-18T05:21:47.245Z,10.60
2023-02-18T05:24:15.331Z,10.60
2023-02-18T05:31:40.393Z,10.50
2023-02-18T05:34:08.676Z,10.50
2023-02-18T05:36:36.681Z,10.50
2023-02-18T05:39:06.434Z,10.50
2023-02-18T05:41:34.444Z,10.50
2023-02-18T05:46:48.345Z,10.50
2023-02-18T05:49:16.370Z,10.50
2023-02-18T05:51:44.379Z,10.50
2023-02-18T05:54:13.746Z,10.50
2023-02-18T05:56:41.749Z,10.50
2023-02-18T05:59:09.959Z,10.50
2023-02-18T06:01:37.983Z,10.50
2023-02-18T06:04:06.252Z,10.50
2023-02-18T06:06:34.490Z,10.50
2023-02-18T06:09:02.480Z,10.50
2023-02-18T06:11:31.941Z,10.60
2023-02-18T06:14:00.161Z,10.50
2023-02-18T06:16:28.898Z,10.50
2023-02-18T06:18:57.081Z,10.50
2023-02-18T06:21:25.259Z,10.50
2023-02-18T06:23:53.555Z,10.50
2023-02-18T06:26:21.647Z,10.40
2023-02-18T06:28:51.070Z,10.40
2023-02-18T06:31:19.199Z,10.40
2023-02-18T06:36:16.021Z,10.40
2023-02-18T06:38:45.316Z,10.40
2023-02-18T06:41:14.631Z,10.40
2023-02-18T06:46:12.514Z,10.50
2023-02-18T06:48:40.490Z,10.60
2023-02-18T06:53:36.778Z,10.60
2023-02-18T06:56:05.305Z,10.60
2023-02-18T06:58:33.347Z,10.60
2023-02-18T07:01:01.384Z,10.50
2023-02-18T07:03:30.836Z,10.60
2023-02-18T07:05:58.800Z,10.60
2023-02-18T07:08:26.769Z,10.60
2023-02-18T07:13:23.089Z,10.70
2023-02-18T07:15:51.151Z,10.60
2023-02-18T07:18:19.222Z,10.60
2023-02-18T07:20:48.729Z,10.70
2023-02-18T07:28:13.287Z,10.70
2023-02-18T07:38:07.618Z,10.80
2023-02-18T07:52:57.485Z,11.00
2023-02-18T07:55:46.846Z,11.10
2023-02-18T08:05:39.832Z,11.50
2023-02-18T08:08:07.841Z,11.50
2023-02-18T08:10:37.197Z,11.60
2023-02-18T08:13:05.166Z,11.60
2023-02-18T08:22:58.971Z,11.90
2023-02-18T08:25:29.762Z,11.90
2023-02-18T08:27:59.894Z,12.00
2023-02-18T08:30:28.376Z,12.10
2023-02-18T08:35:25.015Z,12.00
2023-02-18T08:45:21.313Z,12.00
2023-02-18T08:53:06.326Z,12.60
2023-02-18T08:55:37.172Z,12.00
2023-02-18T08:58:06.775Z,12.10
2023-02-18T09:00:36.590Z,12.20
2023-02-18T09:05:32.916Z,12.30
2023-02-18T09:08:00.882Z,12.40
2023-02-18T09:10:28.962Z,12.40
2023-02-18T09:17:56.389Z,12.10
2023-02-18T09:22:52.661Z,12.10
2023-02-18T09:35:15.890Z,12.20
2023-02-18T09:40:25.274Z,12.50
2023-02-18T09:42:54.856Z,12.50
2023-02-18T09:45:23.186Z,12.40
2023-02-18T09:47:52.976Z,12.60
2023-02-18T09:50:24.492Z,12.60
2023-02-18T09:52:55.000Z,12.60
2023-02-18T09:55:26.095Z,12.50
2023-02-18T09:57:57.108Z,12.50
2023-02-18T10:00:31.693Z,12.40
2023-02-18T10:03:03.659Z,12.40
2023-02-18T10:05:35.456Z,12.50
2023-02-18T10:08:06.635Z,12.50
2023-02-18T10:10:40.011Z,12.50
2023-02-18T10:13:14.892Z,12.50
2023-02-18T10:15:43.785Z,12.50
2023-02-18T10:18:24.348Z,12.50
2023-02-18T10:20:57.461Z,12.50
2023-02-18T10:23:26.349Z,12.50
2023-02-18T10:28:26.118Z,12.40
2023-02-18T10:30:59.484Z,12.40
2023-02-18T10:33:40.191Z,12.40
2023-02-18T10:36:24.070Z,12.40
2023-02-18T10:39:17.010Z,12.50
2023-02-18T10:41:51.943Z,12.50
2023-02-18T10:44:28.815Z,12.50
2023-02-18T10:47:06.175Z,12.50
2023-02-18T10:49:59.023Z,12.60
2023-02-18T10:52:31.081Z,12.50
2023-02-18T10:55:05.062Z,12.60
2023-02-18T10:57:34.055Z,12.60
2023-02-18T11:00:11.811Z,12.60
2023-02-18T11:02:41.168Z,12.60
2023-02-18T11:05:23.821Z,12.60
2023-02-18T11:07:56.713Z,12.60
2023-02-18T11:10:27.082Z,12.70
2023-02-18T11:12:59.160Z,12.60
2023-02-18T11:15:29.196Z,12.70
2023-02-18T11:17:59.346Z,12.90
2023-02-18T11:20:34.173Z,12.90
2023-02-18T11:23:20.000Z,13.00
2023-02-18T11:25:58.249Z,13.00
2023-02-18T11:28:44.026Z,13.10
2023-02-18T11:31:18.579Z,13.00
2023-02-18T11:33:51.371Z,12.90
2023-02-18T11:36:25.092Z,12.90
2023-02-18T11:38:57.359Z,13.00
2023-02-18T11:41:35.069Z,13.00
2023-02-18T11:44:05.731Z,12.90
2023-02-18T11:49:22.164Z,13.00
2023-02-18T11:54:30.055Z,12.90
2023-02-18T11:57:01.134Z,12.80
2023-02-18T11:59:33.427Z,12.90
2023-02-18T12:02:07.277Z,12.80
2023-02-18T12:04:41.773Z,12.70
2023-02-18T12:07:19.252Z,12.80
2023-02-18T12:09:51.722Z,12.80
2023-02-18T12:12:26.221Z,12.90
2023-02-18T12:14:56.449Z,12.90
2023-02-18T12:17:40.786Z,12.80
2023-02-18T12:20:26.953Z,12.90
2023-02-18T12:23:03.098Z,12.90
2023-02-18T12:25:39.663Z,13.00
2023-02-18T12:28:24.859Z,13.00
2023-02-18T12:31:11.548Z,12.90
2023-02-18T12:33:49.967Z,12.90
2023-02-18T12:36:29.916Z,13.10
2023-02-18T12:39:12.568Z,13.20
2023-02-18T12:41:56.724Z,13.30
2023-02-18T12:44:36.513Z,13.30
2023-02-18T12:47:32.111Z,13.30
2023-02-18T12:50:26.328Z,13.30
2023-02-18T12:53:13.199Z,13.30
2023-02-18T12:56:15.469Z,13.20
2023-02-18T12:58:57.559Z,13.20
2023-02-18T13:01:39.236Z,13.20
2023-02-18T13:04:41.095Z,13.20
2023-02-18T13:07:41.854Z,13.20
2023-02-18T13:10:47.530Z,13.30
2023-02-18T13:13:21.308Z,13.40
2023-02-18T13:15:55.972Z,13.40
2023-02-18T13:18:29.430Z,13.50
2023-02-18T13:21:01.739Z,13.50
2023-02-18T13:23:34.986Z,13.60
2023-02-18T13:26:06.686Z,13.60
2023-02-18T13:28:42.294Z,13.60
2023-02-18T13:31:24.242Z,13.60
2023-02-18T13:33:59.592Z,13.70
2023-02-18T13:36:41.693Z,13.60
2023-02-18T13:39:19.303Z,13.60
2023-02-18T13:41:49.949Z,13.60
2023-02-18T13:44:57.805Z,13.80
2023-02-18T13:47:49.963Z,14.00
2023-02-18T13:50:34.557Z,14.00
2023-02-18T13:53:21.976Z,14.10
2023-02-18T13:55:57.469Z,14.00
2023-02-18T13:58:35.720Z,13.80
2023-02-18T14:01:07.428Z,13.90
2023-02-18T14:04:01.483Z,13.90
2023-02-18T14:06:39.105Z,13.90
2023-02-18T14:09:36.694Z,13.90
2023-02-18T14:12:38.754Z,13.80
2023-02-18T14:15:44.269Z,13.90
2023-02-18T14:18:25.860Z,13.80
2023-02-18T14:21:21.160Z,13.80
2023-02-18T14:24:02.368Z,13.80
2023-02-18T14:26:33.623Z,13.70
2023-02-18T14:29:09.527Z,13.60
2023-02-18T14:31:52.506Z,13.60
2023-02-18T14:35:13.525Z,13.50
2023-02-18T14:38:10.992Z,13.50
2023-02-18T14:40:57.465Z,13.50
2023-02-18T14:43:45.453Z,13.50
2023-02-18T14:46:30.070Z,13.50
2023-02-18T14:49:37.465Z,13.60
2023-02-18T14:52:07.773Z,13.50
2023-02-18T14:54:38.318Z,13.50
2023-02-18T14:57:09.263Z,13.40
2023-02-18T14:59:46.459Z,13.30
2023-02-18T15:02:22.015Z,13.30
2023-02-18T15:07:21.304Z,13.30
2023-02-18T15:09:53.876Z,15.70
2023-02-18T15:12:25.885Z,13.20
2023-02-18T15:14:57.090Z,13.20
2023-02-18T15:17:27.767Z,13.10
2023-02-18T15:19:57.914Z,13.00
2023-02-18T15:22:27.969Z,13.00
2023-02-18T15:24:57.746Z,13.10
2023-02-18T15:27:28.985Z,13.00
2023-02-18T15:30:04.010Z,13.00
2023-02-18T15:32:33.617Z,13.00
2023-02-18T15:35:03.290Z,13.00
2023-02-18T15:37:34.353Z,13.00
2023-02-18T15:40:04.707Z,13.00
2023-02-18T15:42:34.921Z,12.90
2023-02-18T15:45:05.922Z,12.90
2023-02-18T15:47:34.530Z,12.90
2023-02-18T15:50:03.835Z,12.80
2023-02-18T15:52:34.992Z,12.70
2023-02-18T15:55:08.899Z,12.80
2023-02-18T15:57:38.149Z,12.80
2023-02-18T16:00:15.037Z,12.70
2023-02-18T16:02:55.319Z,12.70
2023-02-18T16:05:27.552Z,12.70
2023-02-18T16:08:00.891Z,12.70
2023-02-18T16:10:45.247Z,12.70
2023-02-18T16:13:17.428Z,12.60
2023-02-18T16:15:47.499Z,12.60
2023-02-18T16:18:28.947Z,12.60
2023-02-18T16:21:01.444Z,12.60
2023-02-18T16:23:36.401Z,12.50
2023-02-18T16:26:21.530Z,12.50
2023-02-18T16:28:53.731Z,12.40
2023-02-18T16:33:50.914Z,12.40
2023-02-18T16:36:19.113Z,12.40
2023-02-18T16:38:47.129Z,12.40
2023-02-18T16:41:17.803Z,12.40
2023-02-18T16:43:45.750Z,12.40
2023-02-18T16:46:17.572Z,12.30
2023-02-18T16:48:49.993Z,12.30
2023-02-18T16:51:19.783Z,12.30
2023-02-18T16:53:47.995Z,12.30
2023-02-18T16:56:22.501Z,12.20
2023-02-18T17:01:28.757Z,12.20
2023-02-18T17:06:25.794Z,12.10
2023-02-18T17:08:53.785Z,12.10
2023-02-18T17:11:25.867Z,12.00
2023-02-18T17:13:55.090Z,12.00
2023-02-18T17:16:23.732Z,12.10
2023-02-18T17:18:51.915Z,12.10
2023-02-18T17:21:21.999Z,12.10
2023-02-18T17:23:50.589Z,12.00
2023-02-18T17:26:24.514Z,12.00
2023-02-18T17:28:53.546Z,11.90
2023-02-18T17:31:26.042Z,12.00
2023-02-18T17:33:54.709Z,12.00
2023-02-18T17:38:51.042Z,11.90
2023-02-18T17:41:19.066Z,12.00
2023-02-18T17:43:48.600Z,11.90
2023-02-18T17:46:19.460Z,11.90
2023-02-18T17:48:48.462Z,12.00
2023-02-18T17:51:25.365Z,11.80
2023-02-18T17:53:53.489Z,11.80
2023-02-18T17:56:21.549Z,11.80
2023-02-18T17:59:00.757Z,11.80
2023-02-18T18:04:19.814Z,11.70
2023-02-18T18:14:16.303Z,11.70
2023-02-18T18:21:41.806Z,11.50
2023-02-18T18:24:12.897Z,11.50
2023-02-18T18:26:40.976Z,11.60
2023-02-18T18:31:38.840Z,11.50
2023-02-18T18:34:08.219Z,11.50
2023-02-18T18:36:39.830Z,13.20
2023-02-18T18:39:08.893Z,11.40
2023-02-18T18:41:38.155Z,11.30
2023-02-18T18:49:05.786Z,11.20
2023-02-18T18:51:34.862Z,11.20
2023-02-18T19:06:28.255Z,11.10
2023-02-18T19:16:24.348Z,11.20
2023-02-18T19:21:22.292Z,11.20
2023-02-18T19:23:51.927Z,11.20
2023-02-18T19:41:17.997Z,8.00
2023-02-18T19:46:17.806Z,10.80
2023-02-18T19:48:49.379Z,10.80
2023-02-18T19:56:18.213Z,11.70
2023-02-18T20:01:16.257Z,10.60
2023-02-18T20:03:45.639Z,10.50
2023-02-18T20:06:18.898Z,10.50
2023-02-18T20:08:47.925Z,10.40
2023-02-18T20:11:17.512Z,10.40
2023-02-18T20:21:13.716Z,10.10
2023-02-18T20:28:44.711Z,10.10
2023-02-18T20:31:14.895Z,10.00
2023-02-18T20:33:44.389Z,10.00
2023-02-18T20:36:14.913Z,10.00
2023-02-18T20:41:14.421Z,10.00
2023-02-18T20:43:44.485Z,10.00
2023-02-18T20:46:15.235Z,10.00
2023-02-18T20:48:43.948Z,10.00
2023-02-18T20:51:14.991Z,9.90
2023-02-18T20:53:44.162Z,9.90
2023-02-18T20:58:41.548Z,9.80
2023-02-18T21:01:12.823Z,9.90
2023-02-18T21:03:41.295Z,9.80
2023-02-18T21:06:10.916Z,9.80
2023-02-18T21:08:40.685Z,9.80
2023-02-18T21:11:11.163Z,9.80
2023-02-18T21:13:39.386Z,9.70
2023-02-18T21:16:09.458Z,9.70
2023-02-18T21:18:38.954Z,9.70
2023-02-18T21:21:09.495Z,9.70
2023-02-18T21:23:38.770Z,9.70
2023-02-18T21:26:09.501Z,9.60
2023-02-18T21:28:38.209Z,9.60
2023-02-18T21:31:06.854Z,9.70
2023-02-18T21:33:34.880Z,9.70
2023-02-18T21:36:04.344Z,9.60
2023-02-18T21:41:01.284Z,9.60
2023-02-18T21:43:29.408Z,9.60
2023-02-18T21:46:07.103Z,9.60
2023-02-18T21:48:52.482Z,9.50
2023-02-18T21:51:35.757Z,9.50
2023-02-18T21:54:03.723Z,9.60
2023-02-18T21:56:32.014Z,9.60
2023-02-18T21:59:00.162Z,9.50
2023-02-18T22:01:28.188Z,9.60
2023-02-18T22:03:56.217Z,9.50
2023-02-18T22:06:25.740Z,9.50
2023-02-18T22:13:50.384Z,9.50
2023-02-18T22:18:46.809Z,9.50
2023-02-18T22:21:14.931Z,9.50
2023-02-18T22:23:44.384Z,9.50
2023-02-18T22:26:12.815Z,9.50
2023-02-18T22:31:10.620Z,9.40
2023-02-18T22:33:39.130Z,9.40
2023-02-18T22:36:08.763Z,9.50
2023-02-18T22:38:38.763Z,9.40
2023-02-18T22:41:10.619Z,9.50
2023-02-18T22:46:09.001Z,9.50
2023-02-18T22:48:38.874Z,9.50
2023-02-18T22:51:09.133Z,9.50
2023-02-18T22:53:37.637Z,9.50
2023-02-18T22:56:09.358Z,9.40
2023-02-18T22:58:37.709Z,9.40
2023-02-18T23:03:35.656Z,9.40
2023-02-18T23:06:05.431Z,9.40
2023-02-18T23:08:34.126Z,9.40
2023-02-18T23:11:02.703Z,9.30
2023-02-18T23:13:32.221Z,9.30
2023-02-18T23:16:02.208Z,9.30
2023-02-18T23:18:35.834Z,9.30
2023-02-18T23:21:22.221Z,9.30
2023-02-18T23:23:52.969Z,9.30
2023-02-18T23:26:22.849Z,9.30
2023-02-18T23:28:53.695Z,9.30
2023-02-18T23:31:23.742Z,9.20
2023-02-18T23:33:55.178Z,9.20
2023-02-18T23:36:25.752Z,9.30
2023-02-18T23:38:55.912Z,9.20
2023-02-18T23:41:24.919Z,9.20
2023-02-18T23:43:54.821Z,9.20
2023-02-18T23:46:25.297Z,9.10
2023-02-18T23:48:53.304Z,9.10
2023-02-18T23:51:23.422Z,9.10
2023-02-18T23:53:51.771Z,8.60
2023-02-18T23:56:21.175Z,9.10
2023-02-18T23:58:52.311Z,9.10
